sensor_id;sensor_type;location;lat;lon;timestamp;temperature;humidity
7206;DHT22;3644;53.480;10.004;2024-01-25T00:00:56;8.80;99.90
7206;DHT22;3644;53.480;10.004;2024-01-25T00:03:21;8.70;99.90
7206;DHT22;3644;53.480;10.004;2024-01-25T00:05:47;8.80;99.90
7206;DHT22;3644;53.480;10.004;2024-01-25T00:08:14;8.90;99.90
7206;DHT22;3644;53.480;10.004;2024-01-25T00:10:39;8.80;99.90
7206;DHT22;3644;53.480;10.004;2024-01-25T00:13:05;8.70;99.90
7206;DHT22;3644;53.480;10.004;2024-01-25T00:15:30;8.80;99.90
7206;DHT22;3644;53.480;10.004;2024-01-25T00:17:56;8.80;99.90
7206;DHT22;3644;53.480;10.004;2024-01-25T00:20:22;8.80;99.90
7206;DHT22;3644;53.480;10.004;2024-01-25T00:22:48;8.80;99.90
7206;DHT22;3644;53.480;10.004;2024-01-25T00:25:14;8.60;99.90
7206;DHT22;3644;53.480;10.004;2024-01-25T00:27:39;8.70;99.90
7206;DHT22;3644;53.480;10.004;2024-01-25T00:30:05;8.50;99.90
7206;DHT22;3644;53.480;10.004;2024-01-25T00:32:31;8.60;99.90
7206;DHT22;3644;53.480;10.004;2024-01-25T00:34:57;8.60;99.90
7206;DHT22;3644;53.480;10.004;2024-01-25T00:37:23;8.60;99.90
7206;DHT22;3644;53.480;10.004;2024-01-25T00:39:48;8.60;99.90
7206;DHT22;3644;53.480;10.004;2024-01-25T00:42:16;8.70;99.90
7206;DHT22;3644;53.480;10.004;2024-01-25T00:44:42;8.70;99.90
7206;DHT22;3644;53.480;10.004;2024-01-25T00:47:08;8.70;99.90
7206;DHT22;3644;53.480;10.004;2024-01-25T00:49:35;8.70;99.90
7206;DHT22;3644;53.480;10.004;2024-01-25T00:52:02;8.70;99.90
7206;DHT22;3644;53.480;10.004;2024-01-25T00:54:28;8.70;99.90
7206;DHT22;3644;53.480;10.004;2024-01-25T00:56:57;8.70;99.90
7206;DHT22;3644;53.480;10.004;2024-01-25T00:59:23;8.60;99.90
7206;DHT22;3644;53.480;10.004;2024-01-25T01:01:49;8.70;99.90
7206;DHT22;3644;53.480;10.004;2024-01-25T01:04:18;8.60;99.90
7206;DHT22;3644;53.480;10.004;2024-01-25T01:06:43;8.80;99.90
7206;DHT22;3644;53.480;10.004;2024-01-25T01:09:09;8.70;99.90
7206;DHT22;3644;53.480;10.004;2024-01-25T01:11:36;8.60;99.90
7206;DHT22;3644;53.480;10.004;2024-01-25T01:14:02;8.70;99.90
7206;DHT22;3644;53.480;10.004;2024-01-25T01:16:27;8.60;99.90
7206;DHT22;3644;53.480;10.004;2024-01-25T01:18:56;8.70;99.90
7206;DHT22;3644;53.480;10.004;2024-01-25T01:21:21;8.60;99.90
7206;DHT22;3644;53.480;10.004;2024-01-25T01:23:47;8.70;99.90
7206;DHT22;3644;53.480;10.004;2024-01-25T01:26:12;8.60;99.90
7206;DHT22;3644;53.480;10.004;2024-01-25T01:28:38;8.70;99.90
7206;DHT22;3644;53.480;10.004;2024-01-25T01:31:04;8.80;99.90
7206;DHT22;3644;53.480;10.004;2024-01-25T01:33:30;8.70;99.90
7206;DHT22;3644;53.480;10.004;2024-01-25T01:35:55;8.60;99.90
7206;DHT22;3644;53.480;10.004;2024-01-25T01:38:21;8.60;99.90
7206;DHT22;3644;53.480;10.004;2024-01-25T01:40:46;8.50;99.90
7206;DHT22;3644;53.480;10.004;2024-01-25T01:43:19;8.50;99.90
7206;DHT22;3644;53.480;10.004;2024-01-25T01:45:45;8.60;99.90
7206;DHT22;3644;53.480;10.004;2024-01-25T01:48:11;8.50;99.90
7206;DHT22;3644;53.480;10.004;2024-01-25T01:50:37;8.60;99.90
7206;DHT22;3644;53.480;10.004;2024-01-25T01:53:03;8.60;99.90
7206;DHT22;3644;53.480;10.004;2024-01-25T01:55:31;8.60;99.90
7206;DHT22;3644;53.480;10.004;2024-01-25T01:57:57;8.40;99.90
7206;DHT22;3644;53.480;10.004;2024-01-25T02:00:24;8.50;99.90
7206;DHT22;3644;53.480;10.004;2024-01-25T02:02:50;8.60;99.90
7206;DHT22;3644;53.480;10.004;2024-01-25T02:05:16;8.70;99.90
7206;DHT22;3644;53.480;10.004;2024-01-25T02:07:42;8.70;99.90
7206;DHT22;3644;53.480;10.004;2024-01-25T02:10:09;8.60;99.90
7206;DHT22;3644;53.480;10.004;2024-01-25T02:12:35;8.60;99.90
7206;DHT22;3644;53.480;10.004;2024-01-25T02:15:01;8.70;99.90
7206;DHT22;3644;53.480;10.004;2024-01-25T02:17:27;8.80;99.90
7206;DHT22;3644;53.480;10.004;2024-01-25T02:19:52;8.60;99.90
7206;DHT22;3644;53.480;10.004;2024-01-25T02:22:19;8.70;99.90
7206;DHT22;3644;53.480;10.004;2024-01-25T02:24:45;8.60;99.90
7206;DHT22;3644;53.480;10.004;2024-01-25T02:27:10;8.80;99.90
7206;DHT22;3644;53.480;10.004;2024-01-25T02:29:36;8.80;99.90
7206;DHT22;3644;53.480;10.004;2024-01-25T02:32:02;8.50;99.90
7206;DHT22;3644;53.480;10.004;2024-01-25T02:34:28;8.60;99.90
7206;DHT22;3644;53.480;10.004;2024-01-25T02:36:54;8.70;99.90
7206;DHT22;3644;53.480;10.004;2024-01-25T02:39:19;8.70;99.90
7206;DHT22;3644;53.480;10.004;2024-01-25T02:41:45;8.50;99.90
7206;DHT22;3644;53.480;10.004;2024-01-25T02:44:11;8.50;99.90
7206;DHT22;3644;53.480;10.004;2024-01-25T02:46:37;8.50;99.90
7206;DHT22;3644;53.480;10.004;2024-01-25T02:49:03;8.60;99.90
7206;DHT22;3644;53.480;10.004;2024-01-25T02:51:29;8.60;99.90
7206;DHT22;3644;53.480;10.004;2024-01-25T02:53:55;8.50;99.90
7206;DHT22;3644;53.480;10.004;2024-01-25T02:56:20;8.50;99.90
7206;DHT22;3644;53.480;10.004;2024-01-25T02:58:46;8.50;99.90
7206;DHT22;3644;53.480;10.004;2024-01-25T03:01:12;8.50;99.90
7206;DHT22;3644;53.480;10.004;2024-01-25T03:03:37;8.50;99.90
7206;DHT22;3644;53.480;10.004;2024-01-25T03:06:06;8.60;99.90
7206;DHT22;3644;53.480;10.004;2024-01-25T03:08:32;8.60;99.90
7206;DHT22;3644;53.480;10.004;2024-01-25T03:10:57;8.60;99.90
7206;DHT22;3644;53.480;10.004;2024-01-25T03:13:23;8.70;99.90
7206;DHT22;3644;53.480;10.004;2024-01-25T03:15:49;8.80;99.90
7206;DHT22;3644;53.480;10.004;2024-01-25T03:18:14;8.50;99.90
7206;DHT22;3644;53.480;10.004;2024-01-25T03:20:40;8.50;99.90
7206;DHT22;3644;53.480;10.004;2024-01-25T03:23:06;8.50;99.90
7206;DHT22;3644;53.480;10.004;2024-01-25T03:25:31;8.50;99.90
7206;DHT22;3644;53.480;10.004;2024-01-25T03:27:57;8.60;99.90
7206;DHT22;3644;53.480;10.004;2024-01-25T03:30:22;8.80;99.90
7206;DHT22;3644;53.480;10.004;2024-01-25T03:32:48;8.80;99.90
7206;DHT22;3644;53.480;10.004;2024-01-25T03:35:14;8.90;99.90
7206;DHT22;3644;53.480;10.004;2024-01-25T03:37:39;8.70;99.90
7206;DHT22;3644;53.480;10.004;2024-01-25T03:40:05;8.70;99.90
7206;DHT22;3644;53.480;10.004;2024-01-25T03:42:31;8.70;99.90
7206;DHT22;3644;53.480;10.004;2024-01-25T03:44:57;8.50;99.90
7206;DHT22;3644;53.480;10.004;2024-01-25T03:47:22;8.40;99.90
7206;DHT22;3644;53.480;10.004;2024-01-25T03:49:48;8.60;99.90
7206;DHT22;3644;53.480;10.004;2024-01-25T03:52:14;8.50;99.90
7206;DHT22;3644;53.480;10.004;2024-01-25T03:54:40;8.50;99.90
7206;DHT22;3644;53.480;10.004;2024-01-25T03:57:05;8.40;99.90
7206;DHT22;3644;53.480;10.004;2024-01-25T03:59:31;8.50;99.90
7206;DHT22;3644;53.480;10.004;2024-01-25T04:01:57;8.50;99.90
7206;DHT22;3644;53.480;10.004;2024-01-25T04:04:22;8.50;99.90
7206;DHT22;3644;53.480;10.004;2024-01-25T04:06:48;8.70;99.90
7206;DHT22;3644;53.480;10.004;2024-01-25T04:09:14;9.00;99.90
7206;DHT22;3644;53.480;10.004;2024-01-25T04:11:41;8.90;99.90
7206;DHT22;3644;53.480;10.004;2024-01-25T04:14:06;9.00;99.90
7206;DHT22;3644;53.480;10.004;2024-01-25T04:16:33;9.00;99.90
7206;DHT22;3644;53.480;10.004;2024-01-25T04:18:59;9.00;99.90
7206;DHT22;3644;53.480;10.004;2024-01-25T04:21:25;8.90;99.90
7206;DHT22;3644;53.480;10.004;2024-01-25T04:23:51;8.80;99.90
7206;DHT22;3644;53.480;10.004;2024-01-25T04:26:17;9.10;99.90
7206;DHT22;3644;53.480;10.004;2024-01-25T04:28:42;9.10;99.90
7206;DHT22;3644;53.480;10.004;2024-01-25T04:31:08;9.00;99.90
7206;DHT22;3644;53.480;10.004;2024-01-25T04:33:34;9.00;99.90
7206;DHT22;3644;53.480;10.004;2024-01-25T04:36:00;9.00;99.90
7206;DHT22;3644;53.480;10.004;2024-01-25T04:38:25;9.00;99.90
7206;DHT22;3644;53.480;10.004;2024-01-25T04:40:51;9.00;99.90
7206;DHT22;3644;53.480;10.004;2024-01-25T04:43:17;9.00;99.90
7206;DHT22;3644;53.480;10.004;2024-01-25T04:45:42;9.10;99.90
7206;DHT22;3644;53.480;10.004;2024-01-25T04:48:08;8.80;99.90
7206;DHT22;3644;53.480;10.004;2024-01-25T04:50:34;8.80;99.90
7206;DHT22;3644;53.480;10.004;2024-01-25T04:53:01;8.90;99.90
7206;DHT22;3644;53.480;10.004;2024-01-25T04:55:27;9.00;99.90
7206;DHT22;3644;53.480;10.004;2024-01-25T04:57:53;9.00;99.90
7206;DHT22;3644;53.480;10.004;2024-01-25T05:00:21;9.00;99.90
7206;DHT22;3644;53.480;10.004;2024-01-25T05:02:47;9.00;99.90
7206;DHT22;3644;53.480;10.004;2024-01-25T05:05:13;8.90;99.90
7206;DHT22;3644;53.480;10.004;2024-01-25T05:07:39;8.90;99.90
7206;DHT22;3644;53.480;10.004;2024-01-25T05:10:05;8.80;99.90
7206;DHT22;3644;53.480;10.004;2024-01-25T05:12:31;8.80;99.90
7206;DHT22;3644;53.480;10.004;2024-01-25T05:14:57;8.80;99.90
7206;DHT22;3644;53.480;10.004;2024-01-25T05:17:23;8.70;99.90
7206;DHT22;3644;53.480;10.004;2024-01-25T05:19:48;8.80;99.90
7206;DHT22;3644;53.480;10.004;2024-01-25T05:22:14;8.70;99.90
7206;DHT22;3644;53.480;10.004;2024-01-25T05:24:40;8.70;99.90
7206;DHT22;3644;53.480;10.004;2024-01-25T05:27:06;8.80;99.90
7206;DHT22;3644;53.480;10.004;2024-01-25T05:29:31;8.90;99.90
7206;DHT22;3644;53.480;10.004;2024-01-25T05:31:57;8.90;99.90
7206;DHT22;3644;53.480;10.004;2024-01-25T05:34:23;8.80;99.90
7206;DHT22;3644;53.480;10.004;2024-01-25T05:36:49;8.90;99.90
7206;DHT22;3644;53.480;10.004;2024-01-25T05:39:15;9.00;99.90
7206;DHT22;3644;53.480;10.004;2024-01-25T05:41:40;9.00;99.90
7206;DHT22;3644;53.480;10.004;2024-01-25T05:44:06;8.70;99.90
7206;DHT22;3644;53.480;10.004;2024-01-25T05:46:31;8.80;99.90
7206;DHT22;3644;53.480;10.004;2024-01-25T05:48:57;8.90;99.90
7206;DHT22;3644;53.480;10.004;2024-01-25T05:51:23;8.80;99.90
7206;DHT22;3644;53.480;10.004;2024-01-25T05:53:48;8.80;99.90
7206;DHT22;3644;53.480;10.004;2024-01-25T05:56:14;8.80;99.90
7206;DHT22;3644;53.480;10.004;2024-01-25T05:58:40;9.00;99.90
7206;DHT22;3644;53.480;10.004;2024-01-25T06:01:06;9.00;99.90
7206;DHT22;3644;53.480;10.004;2024-01-25T06:03:32;8.90;99.90
7206;DHT22;3644;53.480;10.004;2024-01-25T06:05:58;8.90;99.90
7206;DHT22;3644;53.480;10.004;2024-01-25T06:08:23;8.80;99.90
7206;DHT22;3644;53.480;10.004;2024-01-25T06:10:49;8.90;99.90
7206;DHT22;3644;53.480;10.004;2024-01-25T06:13:15;8.80;99.90
7206;DHT22;3644;53.480;10.004;2024-01-25T06:15:41;8.60;99.90
7206;DHT22;3644;53.480;10.004;2024-01-25T06:18:07;8.70;99.90
7206;DHT22;3644;53.480;10.004;2024-01-25T06:20:32;8.70;99.90
7206;DHT22;3644;53.480;10.004;2024-01-25T06:22:58;8.90;99.90
7206;DHT22;3644;53.480;10.004;2024-01-25T06:25:24;8.90;99.90
7206;DHT22;3644;53.480;10.004;2024-01-25T06:27:49;8.80;99.90
7206;DHT22;3644;53.480;10.004;2024-01-25T06:30:15;8.70;99.90
7206;DHT22;3644;53.480;10.004;2024-01-25T06:32:41;8.70;99.90
7206;DHT22;3644;53.480;10.004;2024-01-25T06:35:07;8.60;99.90
7206;DHT22;3644;53.480;10.004;2024-01-25T06:37:33;8.80;99.90
7206;DHT22;3644;53.480;10.004;2024-01-25T06:39:58;8.60;99.90
7206;DHT22;3644;53.480;10.004;2024-01-25T06:42:24;8.70;99.90
7206;DHT22;3644;53.480;10.004;2024-01-25T06:44:49;8.70;99.90
7206;DHT22;3644;53.480;10.004;2024-01-25T06:47:15;8.80;99.90
7206;DHT22;3644;53.480;10.004;2024-01-25T06:49:41;8.80;99.90
7206;DHT22;3644;53.480;10.004;2024-01-25T06:52:06;8.90;99.90
7206;DHT22;3644;53.480;10.004;2024-01-25T06:54:32;9.40;99.90
7206;DHT22;3644;53.480;10.004;2024-01-25T06:56:58;9.00;99.90
7206;DHT22;3644;53.480;10.004;2024-01-25T06:59:23;9.20;99.90
7206;DHT22;3644;53.480;10.004;2024-01-25T07:01:49;9.20;99.90
7206;DHT22;3644;53.480;10.004;2024-01-25T07:04:15;9.30;99.90
7206;DHT22;3644;53.480;10.004;2024-01-25T07:06:40;9.40;99.90
7206;DHT22;3644;53.480;10.004;2024-01-25T07:09:06;9.30;99.90
7206;DHT22;3644;53.480;10.004;2024-01-25T07:11:32;9.30;99.90
7206;DHT22;3644;53.480;10.004;2024-01-25T07:13:58;9.30;99.90
7206;DHT22;3644;53.480;10.004;2024-01-25T07:16:24;9.20;99.90
7206;DHT22;3644;53.480;10.004;2024-01-25T07:18:49;9.10;99.90
7206;DHT22;3644;53.480;10.004;2024-01-25T07:21:15;8.90;99.90
7206;DHT22;3644;53.480;10.004;2024-01-25T07:23:41;8.90;99.90
7206;DHT22;3644;53.480;10.004;2024-01-25T07:26:07;8.90;99.90
7206;DHT22;3644;53.480;10.004;2024-01-25T07:28:32;8.90;99.90
7206;DHT22;3644;53.480;10.004;2024-01-25T07:30:58;8.70;99.90
7206;DHT22;3644;53.480;10.004;2024-01-25T07:33:23;8.70;99.90
7206;DHT22;3644;53.480;10.004;2024-01-25T07:35:50;8.70;99.90
7206;DHT22;3644;53.480;10.004;2024-01-25T07:38:16;8.70;99.90
7206;DHT22;3644;53.480;10.004;2024-01-25T07:40:42;8.70;99.90
7206;DHT22;3644;53.480;10.004;2024-01-25T07:43:08;8.70;99.90
7206;DHT22;3644;53.480;10.004;2024-01-25T07:45:33;8.80;99.90
7206;DHT22;3644;53.480;10.004;2024-01-25T07:47:59;8.80;99.90
7206;DHT22;3644;53.480;10.004;2024-01-25T07:50:25;8.80;99.90
7206;DHT22;3644;53.480;10.004;2024-01-25T07:52:51;8.80;99.90
7206;DHT22;3644;53.480;10.004;2024-01-25T07:55:17;8.70;99.90
7206;DHT22;3644;53.480;10.004;2024-01-25T07:57:42;8.70;99.90
7206;DHT22;3644;53.480;10.004;2024-01-25T08:00:09;8.60;99.90
7206;DHT22;3644;53.480;10.004;2024-01-25T08:02:35;8.70;99.90
7206;DHT22;3644;53.480;10.004;2024-01-25T08:05:01;8.80;99.90
7206;DHT22;3644;53.480;10.004;2024-01-25T08:07:28;8.80;99.90
7206;DHT22;3644;53.480;10.004;2024-01-25T08:09:54;8.80;99.90
7206;DHT22;3644;53.480;10.004;2024-01-25T08:12:26;9.00;99.90
7206;DHT22;3644;53.480;10.004;2024-01-25T08:14:52;9.00;99.90
7206;DHT22;3644;53.480;10.004;2024-01-25T08:17:18;9.10;99.90
7206;DHT22;3644;53.480;10.004;2024-01-25T08:19:45;9.20;99.90
7206;DHT22;3644;53.480;10.004;2024-01-25T08:22:11;9.00;99.90
7206;DHT22;3644;53.480;10.004;2024-01-25T08:24:39;9.10;99.90
7206;DHT22;3644;53.480;10.004;2024-01-25T08:27:04;9.10;99.90
7206;DHT22;3644;53.480;10.004;2024-01-25T08:29:30;9.30;99.90
7206;DHT22;3644;53.480;10.004;2024-01-25T08:31:56;9.20;99.90
7206;DHT22;3644;53.480;10.004;2024-01-25T08:34:21;9.00;99.90
7206;DHT22;3644;53.480;10.004;2024-01-25T08:36:47;8.90;99.90
7206;DHT22;3644;53.480;10.004;2024-01-25T08:39:12;9.20;99.90
7206;DHT22;3644;53.480;10.004;2024-01-25T08:41:39;9.10;99.90
7206;DHT22;3644;53.480;10.004;2024-01-25T08:44:05;9.20;99.90
7206;DHT22;3644;53.480;10.004;2024-01-25T08:46:30;9.40;99.90
7206;DHT22;3644;53.480;10.004;2024-01-25T08:48:56;9.40;99.90
7206;DHT22;3644;53.480;10.004;2024-01-25T08:51:22;9.20;99.90
7206;DHT22;3644;53.480;10.004;2024-01-25T08:53:47;9.30;99.90
7206;DHT22;3644;53.480;10.004;2024-01-25T08:56:16;9.20;99.90
7206;DHT22;3644;53.480;10.004;2024-01-25T08:58:41;9.40;99.90
7206;DHT22;3644;53.480;10.004;2024-01-25T09:01:07;9.20;99.90
7206;DHT22;3644;53.480;10.004;2024-01-25T09:03:33;9.10;99.90
7206;DHT22;3644;53.480;10.004;2024-01-25T09:05:59;9.10;99.90
7206;DHT22;3644;53.480;10.004;2024-01-25T09:08:31;9.30;99.90
7206;DHT22;3644;53.480;10.004;2024-01-25T09:10:57;9.20;99.90
7206;DHT22;3644;53.480;10.004;2024-01-25T09:13:22;9.30;99.90
7206;DHT22;3644;53.480;10.004;2024-01-25T09:15:48;9.40;99.90
7206;DHT22;3644;53.480;10.004;2024-01-25T09:18:14;9.40;99.90
7206;DHT22;3644;53.480;10.004;2024-01-25T09:20:40;9.30;99.90
7206;DHT22;3644;53.480;10.004;2024-01-25T09:23:06;9.30;99.90
7206;DHT22;3644;53.480;10.004;2024-01-25T09:25:32;9.50;99.90
7206;DHT22;3644;53.480;10.004;2024-01-25T09:27:59;9.50;99.90
7206;DHT22;3644;53.480;10.004;2024-01-25T09:30:25;9.40;99.90
7206;DHT22;3644;53.480;10.004;2024-01-25T09:32:52;9.40;99.90
7206;DHT22;3644;53.480;10.004;2024-01-25T09:35:18;9.40;99.90
7206;DHT22;3644;53.480;10.004;2024-01-25T09:37:43;9.40;99.90
7206;DHT22;3644;53.480;10.004;2024-01-25T09:40:10;9.60;99.90
7206;DHT22;3644;53.480;10.004;2024-01-25T09:42:36;9.70;99.90
7206;DHT22;3644;53.480;10.004;2024-01-25T09:45:08;9.70;99.90
7206;DHT22;3644;53.480;10.004;2024-01-25T09:47:36;9.70;99.90
7206;DHT22;3644;53.480;10.004;2024-01-25T09:50:02;9.60;99.90
7206;DHT22;3644;53.480;10.004;2024-01-25T09:52:29;9.50;99.90
7206;DHT22;3644;53.480;10.004;2024-01-25T09:54:57;9.40;99.90
7206;DHT22;3644;53.480;10.004;2024-01-25T09:57:24;9.50;99.90
7206;DHT22;3644;53.480;10.004;2024-01-25T09:59:53;9.70;99.90
7206;DHT22;3644;53.480;10.004;2024-01-25T10:02:20;9.60;99.90
7206;DHT22;3644;53.480;10.004;2024-01-25T10:04:50;9.40;99.90
7206;DHT22;3644;53.480;10.004;2024-01-25T10:07:34;9.40;99.90
7206;DHT22;3644;53.480;10.004;2024-01-25T10:10:00;9.40;99.90
7206;DHT22;3644;53.480;10.004;2024-01-25T10:12:28;9.50;99.90
7206;DHT22;3644;53.480;10.004;2024-01-25T10:14:54;9.50;99.90
7206;DHT22;3644;53.480;10.004;2024-01-25T10:17:19;9.80;99.90
7206;DHT22;3644;53.480;10.004;2024-01-25T10:19:45;9.90;99.90
7206;DHT22;3644;53.480;10.004;2024-01-25T10:22:10;10.00;99.90
7206;DHT22;3644;53.480;10.004;2024-01-25T10:24:38;9.90;99.90
7206;DHT22;3644;53.480;10.004;2024-01-25T10:27:04;10.00;99.90
7206;DHT22;3644;53.480;10.004;2024-01-25T10:29:29;10.00;99.90
7206;DHT22;3644;53.480;10.004;2024-01-25T10:31:55;10.10;99.90
7206;DHT22;3644;53.480;10.004;2024-01-25T10:34:23;10.10;99.90
7206;DHT22;3644;53.480;10.004;2024-01-25T10:36:50;9.90;99.90
7206;DHT22;3644;53.480;10.004;2024-01-25T10:39:17;9.90;99.90
7206;DHT22;3644;53.480;10.004;2024-01-25T10:41:45;10.00;99.90
7206;DHT22;3644;53.480;10.004;2024-01-25T10:44:15;9.90;99.90
7206;DHT22;3644;53.480;10.004;2024-01-25T10:46:41;9.70;99.90
7206;DHT22;3644;53.480;10.004;2024-01-25T10:49:07;9.90;99.90
7206;DHT22;3644;53.480;10.004;2024-01-25T10:51:33;10.10;99.90
7206;DHT22;3644;53.480;10.004;2024-01-25T10:53:59;10.00;99.90
7206;DHT22;3644;53.480;10.004;2024-01-25T10:56:25;9.90;99.90
7206;DHT22;3644;53.480;10.004;2024-01-25T10:58:51;9.80;99.90
7206;DHT22;3644;53.480;10.004;2024-01-25T11:01:18;10.00;99.90
7206;DHT22;3644;53.480;10.004;2024-01-25T11:03:46;9.90;99.90
7206;DHT22;3644;53.480;10.004;2024-01-25T11:06:14;9.90;99.90
7206;DHT22;3644;53.480;10.004;2024-01-25T11:08:40;10.10;99.90
7206;DHT22;3644;53.480;10.004;2024-01-25T11:11:12;10.20;99.90
7206;DHT22;3644;53.480;10.004;2024-01-25T11:13:39;10.00;99.90
7206;DHT22;3644;53.480;10.004;2024-01-25T11:16:19;9.90;99.90
7206;DHT22;3644;53.480;10.004;2024-01-25T11:18:54;10.20;99.90
7206;DHT22;3644;53.480;10.004;2024-01-25T11:21:29;10.30;99.90
7206;DHT22;3644;53.480;10.004;2024-01-25T11:24:02;10.50;99.90
7206;DHT22;3644;53.480;10.004;2024-01-25T11:26:28;10.30;99.90
7206;DHT22;3644;53.480;10.004;2024-01-25T11:28:54;10.20;99.90
7206;DHT22;3644;53.480;10.004;2024-01-25T11:31:22;10.30;99.90
7206;DHT22;3644;53.480;10.004;2024-01-25T11:33:49;10.10;99.90
7206;DHT22;3644;53.480;10.004;2024-01-25T11:36:15;10.00;99.90
7206;DHT22;3644;53.480;10.004;2024-01-25T11:38:40;9.90;99.90
7206;DHT22;3644;53.480;10.004;2024-01-25T11:41:06;10.00;99.90
7206;DHT22;3644;53.480;10.004;2024-01-25T11:43:32;10.10;99.90
7206;DHT22;3644;53.480;10.004;2024-01-25T11:45:58;10.10;99.90
7206;DHT22;3644;53.480;10.004;2024-01-25T11:48:27;9.90;99.90
7206;DHT22;3644;53.480;10.004;2024-01-25T11:50:52;10.00;99.90
7206;DHT22;3644;53.480;10.004;2024-01-25T11:53:18;10.10;99.90
7206;DHT22;3644;53.480;10.004;2024-01-25T11:55:43;9.90;99.90
7206;DHT22;3644;53.480;10.004;2024-01-25T11:58:09;10.10;99.90
7206;DHT22;3644;53.480;10.004;2024-01-25T12:00:35;10.20;99.90
7206;DHT22;3644;53.480;10.004;2024-01-25T12:03:01;10.50;99.90
7206;DHT22;3644;53.480;10.004;2024-01-25T12:05:26;10.40;99.90
7206;DHT22;3644;53.480;10.004;2024-01-25T12:07:52;9.90;99.90
7206;DHT22;3644;53.480;10.004;2024-01-25T12:10:17;9.90;99.90
7206;DHT22;3644;53.480;10.004;2024-01-25T12:12:43;9.80;99.90
7206;DHT22;3644;53.480;10.004;2024-01-25T12:15:08;10.10;99.90
7206;DHT22;3644;53.480;10.004;2024-01-25T12:17:34;10.00;99.90
7206;DHT22;3644;53.480;10.004;2024-01-25T12:20:05;10.00;99.90
7206;DHT22;3644;53.480;10.004;2024-01-25T12:22:36;10.10;99.90
7206;DHT22;3644;53.480;10.004;2024-01-25T12:25:02;9.80;99.90
7206;DHT22;3644;53.480;10.004;2024-01-25T12:27:31;10.00;99.90
7206;DHT22;3644;53.480;10.004;2024-01-25T12:29:57;10.00;99.90
7206;DHT22;3644;53.480;10.004;2024-01-25T12:32:26;9.90;99.90
7206;DHT22;3644;53.480;10.004;2024-01-25T12:34:58;9.90;99.90
7206;DHT22;3644;53.480;10.004;2024-01-25T12:37:26;10.30;99.90
7206;DHT22;3644;53.480;10.004;2024-01-25T12:39:52;10.10;99.90
7206;DHT22;3644;53.480;10.004;2024-01-25T12:42:21;10.00;99.90
7206;DHT22;3644;53.480;10.004;2024-01-25T12:44:47;10.20;99.90
7206;DHT22;3644;53.480;10.004;2024-01-25T12:47:13;10.30;99.90
7206;DHT22;3644;53.480;10.004;2024-01-25T12:49:42;10.40;99.90
7206;DHT22;3644;53.480;10.004;2024-01-25T12:52:09;10.40;99.90
7206;DHT22;3644;53.480;10.004;2024-01-25T12:54:35;10.40;99.90
7206;DHT22;3644;53.480;10.004;2024-01-25T12:57:01;10.30;99.90
7206;DHT22;3644;53.480;10.004;2024-01-25T12:59:27;10.50;99.90
7206;DHT22;3644;53.480;10.004;2024-01-25T13:01:52;10.30;99.90
7206;DHT22;3644;53.480;10.004;2024-01-25T13:04:18;10.40;99.90
7206;DHT22;3644;53.480;10.004;2024-01-25T13:06:43;10.50;99.90
7206;DHT22;3644;53.480;10.004;2024-01-25T13:09:09;10.40;99.90
7206;DHT22;3644;53.480;10.004;2024-01-25T13:11:34;10.40;99.90
7206;DHT22;3644;53.480;10.004;2024-01-25T13:14:00;10.40;99.90
7206;DHT22;3644;53.480;10.004;2024-01-25T13:16:26;10.40;99.90
7206;DHT22;3644;53.480;10.004;2024-01-25T13:18:51;10.60;99.90
7206;DHT22;3644;53.480;10.004;2024-01-25T13:21:17;10.70;99.90
7206;DHT22;3644;53.480;10.004;2024-01-25T13:23:42;10.40;99.90
7206;DHT22;3644;53.480;10.004;2024-01-25T13:26:08;10.60;99.90
7206;DHT22;3644;53.480;10.004;2024-01-25T13:28:33;10.80;99.90
7206;DHT22;3644;53.480;10.004;2024-01-25T13:30:59;10.70;99.90
7206;DHT22;3644;53.480;10.004;2024-01-25T13:33:25;10.70;99.90
7206;DHT22;3644;53.480;10.004;2024-01-25T13:35:50;10.70;99.90
7206;DHT22;3644;53.480;10.004;2024-01-25T13:38:16;10.80;99.90
7206;DHT22;3644;53.480;10.004;2024-01-25T13:40:42;10.80;99.90
7206;DHT22;3644;53.480;10.004;2024-01-25T13:43:08;10.70;99.90
7206;DHT22;3644;53.480;10.004;2024-01-25T13:45:34;10.80;99.90
7206;DHT22;3644;53.480;10.004;2024-01-25T13:47:59;11.00;99.90
7206;DHT22;3644;53.480;10.004;2024-01-25T13:50:25;10.90;99.90
7206;DHT22;3644;53.480;10.004;2024-01-25T13:52:50;10.80;99.90
7206;DHT22;3644;53.480;10.004;2024-01-25T13:55:16;11.00;99.90
7206;DHT22;3644;53.480;10.004;2024-01-25T13:57:41;11.10;99.90
7206;DHT22;3644;53.480;10.004;2024-01-25T14:00:07;11.20;99.90
7206;DHT22;3644;53.480;10.004;2024-01-25T14:02:33;11.40;99.90
7206;DHT22;3644;53.480;10.004;2024-01-25T14:04:59;11.40;99.90
7206;DHT22;3644;53.480;10.004;2024-01-25T14:07:25;11.50;99.90
7206;DHT22;3644;53.480;10.004;2024-01-25T14:09:50;11.60;99.90
7206;DHT22;3644;53.480;10.004;2024-01-25T14:12:17;11.30;99.90
7206;DHT22;3644;53.480;10.004;2024-01-25T14:14:43;11.40;99.90
7206;DHT22;3644;53.480;10.004;2024-01-25T14:17:08;11.50;99.90
7206;DHT22;3644;53.480;10.004;2024-01-25T14:19:34;11.30;99.90
7206;DHT22;3644;53.480;10.004;2024-01-25T14:22:00;11.60;99.90
7206;DHT22;3644;53.480;10.004;2024-01-25T14:24:25;11.30;99.90
7206;DHT22;3644;53.480;10.004;2024-01-25T14:26:51;11.20;99.90
7206;DHT22;3644;53.480;10.004;2024-01-25T14:29:16;11.30;99.90
7206;DHT22;3644;53.480;10.004;2024-01-25T14:31:42;11.30;99.90
7206;DHT22;3644;53.480;10.004;2024-01-25T14:34:08;11.20;99.90
7206;DHT22;3644;53.480;10.004;2024-01-25T14:36:36;11.30;99.90
7206;DHT22;3644;53.480;10.004;2024-01-25T14:39:02;11.30;99.90
7206;DHT22;3644;53.480;10.004;2024-01-25T14:41:29;11.00;99.90
7206;DHT22;3644;53.480;10.004;2024-01-25T14:43:55;10.80;99.90
7206;DHT22;3644;53.480;10.004;2024-01-25T14:46:20;11.00;99.90
7206;DHT22;3644;53.480;10.004;2024-01-25T14:48:46;10.90;99.90
7206;DHT22;3644;53.480;10.004;2024-01-25T14:51:11;11.00;99.90
7206;DHT22;3644;53.480;10.004;2024-01-25T14:53:37;11.20;99.90
7206;DHT22;3644;53.480;10.004;2024-01-25T14:56:02;11.20;99.90
7206;DHT22;3644;53.480;10.004;2024-01-25T14:58:28;11.00;99.90
7206;DHT22;3644;53.480;10.004;2024-01-25T15:00:54;11.00;99.90
7206;DHT22;3644;53.480;10.004;2024-01-25T15:03:20;10.90;99.90
7206;DHT22;3644;53.480;10.004;2024-01-25T15:05:45;11.10;99.90
7206;DHT22;3644;53.480;10.004;2024-01-25T15:08:11;10.90;99.90
7206;DHT22;3644;53.480;10.004;2024-01-25T15:10:37;10.50;99.90
7206;DHT22;3644;53.480;10.004;2024-01-25T15:13:02;10.50;99.90
7206;DHT22;3644;53.480;10.004;2024-01-25T15:15:28;10.70;99.90
7206;DHT22;3644;53.480;10.004;2024-01-25T15:18:00;10.80;99.90
7206;DHT22;3644;53.480;10.004;2024-01-25T15:20:25;10.80;99.90
7206;DHT22;3644;53.480;10.004;2024-01-25T15:22:51;11.00;99.90
7206;DHT22;3644;53.480;10.004;2024-01-25T15:25:17;10.90;99.90
7206;DHT22;3644;53.480;10.004;2024-01-25T15:27:43;10.80;99.90
7206;DHT22;3644;53.480;10.004;2024-01-25T15:30:09;10.70;99.90
7206;DHT22;3644;53.480;10.004;2024-01-25T15:32:37;10.70;99.90
7206;DHT22;3644;53.480;10.004;2024-01-25T15:35:03;10.80;99.90
7206;DHT22;3644;53.480;10.004;2024-01-25T15:37:28;10.70;99.90
7206;DHT22;3644;53.480;10.004;2024-01-25T15:39:54;10.60;99.90
7206;DHT22;3644;53.480;10.004;2024-01-25T15:42:20;10.70;99.90
7206;DHT22;3644;53.480;10.004;2024-01-25T15:44:45;10.60;99.90
7206;DHT22;3644;53.480;10.004;2024-01-25T15:47:11;10.60;99.90
7206;DHT22;3644;53.480;10.004;2024-01-25T15:49:38;10.70;99.90